Latest Weather Observations for Mardie

IDW60801

Issued at 8:53 am WST Tuesday 14 July 2020 (issued every 10 minutes, with the page automatically refreshed every 10 minutes)

About weather observations | Map of weather stations | Latest weather observations for WA | Other Formats
Station Details ID: 005008 Name: MARDIE Lat: -21.19 Lon: 115.98 Height: 11.0 m
Data from the previous 72 hours. | See also: Recent months at Mardie
Date/Time
WST
Temp
°C
App
Temp
°C
Dew
Point
°C
Rel
Hum
%
Delta-T
°C
Wind Press
QNH
hPa
Press
MSL
hPa
Rain since
9am
mm
Dir  Spd
km/h
Gust
km/h
Spd
kts
Gust
kts
14/08:30am 20.7 17.7 0.5 26 9.1 SE 6 7 3 4 1017.1 1017.0 -
14/08:00am 17.3 14.0 0.0 31 7.4 SE 7 9 4 5 1016.7 1016.7 -
14/07:30am 13.8 10.4 -0.3 38 5.8 SE 7 11 4 6 1016.6 1016.6 -
14/07:00am 13.3 9.6 0.0 40 5.5 ESE 9 11 5 6 1016.0 1016.0 -
14/06:30am 13.1 9.4 -0.2 40 5.5 ESE 9 9 5 5 1015.6 1015.6 -
14/06:00am 13.0 9.6 -0.3 40 5.5 E 7 9 4 5 1015.3 1015.3 -
14/05:30am 13.2 9.5 -0.1 40 5.5 E 9 9 5 5 1015.2 1015.2 -
14/05:00am 13.5 9.4 -0.2 39 5.7 E 11 11 6 6 1015.2 1015.2 -
14/04:30am 13.6 10.2 -0.4 38 5.8 ESE 7 7 4 4 1015.2 1015.2 -
14/04:00am 13.4 10.0 -0.6 38 5.7 SSE 7 9 4 5 1015.4 1015.4 -
14/03:30am 14.1 10.8 0.4 39 5.8 SSE 7 9 4 5 1015.4 1015.4 -
14/03:00am 14.5 10.3 1.4 41 5.7 SE 13 15 7 8 1015.4 1015.4 -
14/02:30am 15.0 11.2 1.9 41 5.8 ENE 11 13 6 7 1015.3 1015.3 0.0
14/02:00am 15.3 11.7 2.8 43 5.6 ENE 11 13 6 7 1015.2 1015.2 0.0
14/01:30am 14.9 11.8 3.4 46 5.2 NE 9 9 5 5 1015.4 1015.4 0.0
14/01:00am 15.5 12.7 3.3 44 5.5 NE 7 7 4 4 1015.6 1015.6 0.0
14/12:30am 16.1 13.1 4.2 45 5.5 NE 9 9 5 5 1015.6 1015.6 0.0
14/12:00am 16.7 13.8 4.4 44 5.8 NE 9 11 5 6 1015.7 1015.7 0.0
 
Date/Time
WST
Temp
°C
App
Temp
°C
Dew
Point
°C
Rel
Hum
%
Delta-T
°C
Wind Press
QNH
hPa
Press
MSL
hPa
Rain since
9am
mm
Dir  Spd
km/h
Gust
km/h
Spd
kts
Gust
kts
13/11:30pm 16.6 13.4 4.9 46 5.6 NE 11 11 6 6 1015.9 1015.9 0.0
13/11:00pm 16.9 13.9 5.8 48 5.4 NE 11 13 6 7 1016.2 1016.2 0.0
13/10:30pm 17.0 14.2 5.3 46 5.6 NE 9 9 5 5 1016.4 1016.4 0.0
13/10:00pm 17.7 15.6 5.6 45 5.9 NE 6 7 3 4 1016.4 1016.4 0.0
13/09:30pm 18.7 16.2 6.5 45 6.1 NE 9 11 5 6 1016.2 1016.2 0.0
13/09:00pm 20.0 16.9 7.1 43 6.5 NE 13 15 7 8 1016.2 1016.2 0.0
13/08:30pm 20.2 17.6 7.9 45 6.4 NE 11 13 6 7 1016.1 1016.1 0.0
13/08:00pm 20.4 18.1 7.4 43 6.7 NE 9 13 5 7 1016.0 1016.0 0.0
13/07:30pm 21.5 18.8 7.3 40 7.3 NNE 11 13 6 7 1015.8 1015.8 0.0
13/07:00pm 22.7 19.4 6.5 35 8.3 NNE 13 17 7 9 1015.5 1015.5 0.0
13/06:30pm 23.7 19.6 4.6 29 9.5 NNE 15 19 8 10 1015.2 1015.2 0.0
13/06:00pm 24.8 20.5 3.5 25 10.4 NNE 15 22 8 12 1015.1 1015.1 0.0
13/05:30pm 25.9 20.8 3.2 23 11.1 NNE 19 26 10 14 1014.8 1014.8 0.0
13/05:00pm 27.0 22.2 2.8 21 11.9 N 17 22 9 12 1014.6 1014.6 0.0
13/04:30pm 27.7 22.1 3.4 21 12.1 NNE 22 28 12 15 1014.3 1014.3 0.0
13/04:00pm 28.9 23.8 0.6 16 13.5 NNE 17 24 9 13 1014.2 1014.2 0.0
13/03:30pm 29.6 24.6 -8.1 8 15.6 E 11 19 6 10 1014.2 1014.2 0.0
13/03:00pm 29.8 24.8 -8.0 8 15.7 ENE 11 20 6 11 1014.3 1014.3 0.0
13/02:30pm 29.7 24.7 -8.0 8 15.6 NE 11 17 6 9 1014.4 1014.4 0.0
13/02:00pm 29.4 23.3 -8.2 8 15.5 NE 17 32 9 17 1014.7 1014.7 0.0
13/01:30pm 29.0 22.8 -8.5 8 15.3 ENE 17 26 9 14 1015.0 1015.0 0.0
13/01:00pm 29.0 22.8 -8.5 8 15.3 NE 17 26 9 14 1015.7 1015.7 0.0
13/12:30pm 28.7 22.1 -8.8 8 15.2 ENE 19 26 10 14 1016.3 1016.3 0.0
13/12:00pm 28.4 21.6 -9.0 8 15.0 NE 20 30 11 16 1016.8 1016.8 0.0
13/11:30am 27.3 20.5 -9.8 8 14.5 ENE 20 30 11 16 1017.3 1017.2 0.0
13/11:00am 27.7 20.1 -9.5 8 14.7 NE 24 33 13 18 1017.7 1017.6 0.0
13/10:30am 26.0 17.7 -9.3 9 13.8 ENE 28 35 15 19 1017.9 1017.8 0.0
13/10:00am 25.4 17.0 -9.7 9 13.5 ENE 28 35 15 19 1018.3 1018.2 0.0
13/09:30am 24.0 17.2 -9.5 10 12.8 E 20 30 11 16 1018.3 1018.2 0.0
13/09:00am 21.4 14.9 -8.1 13 11.2 E 19 24 10 13 1018.1 1018.0 0.0
13/08:30am 19.4 12.9 -7.9 15 10.2 E 19 22 10 12 1018.0 1017.9 0.0
13/08:00am 17.9 11.8 -7.5 17 9.4 E 17 22 9 12 1017.9 1017.8 0.0
13/07:30am 15.8 10.2 -6.5 21 8.2 ESE 15 17 8 9 1017.6 1017.5 0.0
13/07:00am 14.5 9.2 -6.9 22 7.7 ESE 13 17 7 9 1017.4 1017.3 0.0
13/06:30am 14.6 9.3 -6.8 22 7.7 E 13 13 7 7 1017.1 1017.0 0.0
13/06:00am 14.4 9.6 -6.4 23 7.6 E 11 13 6 7 1016.6 1016.6 0.0
13/05:30am 14.9 9.7 -6.6 22 7.8 ESE 13 15 7 8 1016.4 1016.4 0.0
13/05:00am 15.0 9.8 -5.9 23 7.7 ESE 13 15 7 8 1016.3 1016.3 0.0
13/04:30am 15.4 9.5 -5.6 23 7.9 ESE 17 19 9 10 1016.3 1016.3 0.0
13/04:00am 14.8 9.0 -4.5 26 7.4 ESE 17 19 9 10 1016.4 1016.4 0.0
13/03:30am 13.5 9.4 -2.8 32 6.4 E 9 9 5 5 1016.5 1016.5 0.0
13/03:00am 14.8 10.3 -3.0 29 7.0 ESE 11 13 6 7 1016.5 1016.5 0.0
13/02:30am 13.0 8.8 -0.6 39 5.6 ESE 11 13 6 7 1016.6 1016.6 0.0
13/02:00am 13.4 9.8 0.8 42 5.3 SE 9 9 5 5 1017.0 1016.9 0.0
13/01:30am 14.1 11.0 1.1 41 5.6 SE 7 9 4 5 1017.2 1017.1 0.0
13/01:00am 14.2 10.8 2.1 44 5.3 SE 9 11 5 6 1017.3 1017.2 0.0
13/12:30am 14.8 11.9 2.7 44 5.4 SE 7 7 4 4 1017.2 1017.1 0.0
13/12:00am 14.4 11.1 2.6 45 5.2 SE 9 11 5 6 1017.4 1017.3 0.0
 
Date/Time
WST
Temp
°C
App
Temp
°C
Dew
Point
°C
Rel
Hum
%
Delta-T
°C
Wind Press
QNH
hPa
Press
MSL
hPa
Rain since
9am
mm
Dir  Spd
km/h
Gust
km/h
Spd
kts
Gust
kts
12/11:30pm 15.3 13.1 3.5 45 5.4 ESE 4 6 2 3 1017.6 1017.5 0.0
12/11:00pm 16.3 13.7 3.4 42 5.9 ESE 6 7 3 4 1017.9 1017.8 0.0
12/10:30pm 17.7 15.1 4.3 41 6.3 ESE 7 9 4 5 1018.0 1017.9 0.0
12/10:00pm 18.3 14.7 5.2 42 6.3 SSE 13 17 7 9 1018.0 1017.9 0.0
12/09:30pm 17.6 16.0 8.7 56 4.6 NE 7 7 4 4 1017.7 1017.6 0.0
12/09:00pm 18.5 16.7 9.6 56 4.7 NE 9 11 5 6 1017.8 1017.7 0.0
12/08:30pm 18.8 17.4 10.9 60 4.3 NNE 9 11 5 6 1017.6 1017.5 0.0
12/08:00pm 19.6 18.6 12.4 63 4.0 NNE 9 11 5 6 1017.5 1017.4 0.0
12/07:30pm 20.4 18.8 11.6 57 4.9 NNE 11 15 6 8 1017.2 1017.1 0.0
12/07:00pm 21.2 19.4 11.0 52 5.6 NNE 11 15 6 8 1016.8 1016.8 0.0
12/06:30pm 21.9 20.2 9.8 46 6.5 N 9 13 5 7 1016.5 1016.5 0.0
12/06:00pm 23.0 20.3 7.5 37 8.1 N 11 17 6 9 1016.3 1016.3 0.0
12/05:30pm 24.6 20.8 5.9 30 9.6 N 15 20 8 11 1016.0 1016.0 0.0
12/05:00pm 26.1 22.7 5.7 27 10.5 N 13 17 7 9 1015.8 1015.8 0.0
12/04:30pm 27.4 24.3 3.8 22 11.8 N 9 20 5 11 1015.5 1015.5 0.0
12/04:00pm 28.8 25.5 -8.7 8 15.2 ESE 2 6 1 3 1015.4 1015.4 0.0
12/03:30pm 29.4 25.2 -8.2 8 15.5 ENE 7 17 4 9 1015.4 1015.4 0.0
12/03:00pm 28.7 24.6 -8.8 8 15.2 ESE 6 13 3 7 1015.5 1015.5 0.0
12/02:30pm 28.8 23.4 -8.7 8 15.2 ESE 13 20 7 11 1015.7 1015.7 0.0
12/02:00pm 28.4 23.0 -9.0 8 15.0 ENE 13 22 7 12 1016.0 1016.0 0.0
12/01:30pm 28.0 22.1 -9.3 8 14.9 ENE 15 24 8 13 1016.4 1016.4 0.0
12/01:00pm 27.9 21.1 -9.4 8 14.8 ENE 20 32 11 17 1017.0 1016.9 0.0
12/12:30pm 27.0 19.4 -10.0 8 14.4 ENE 24 33 13 18 1017.7 1017.6 0.0
12/12:00pm 26.5 19.0 -8.9 9 14.0 ENE 24 32 13 17 1018.2 1018.1 0.0
12/11:30am 25.6 17.3 -9.6 9 13.6 E 28 33 15 18 1018.7 1018.6 0.0
12/11:00am 25.3 17.8 -8.5 10 13.3 E 24 32 13 17 1019.2 1019.1 0.0
12/10:30am 24.2 16.0 -8.1 11 12.7 E 28 35 15 19 1019.5 1019.4 0.0
12/10:00am 23.6 15.1 -7.4 12 12.2 E 30 35 16 19 1019.8 1019.7 0.0
12/09:30am 21.9 13.9 -5.9 15 11.1 E 28 32 15 17 1019.9 1019.8 0.0
12/09:00am 20.7 12.3 -6.0 16 10.5 E 30 37 16 20 1020.0 1019.9 0.0
12/08:30am 19.5 11.2 -5.4 18 9.8 E 30 35 16 19 1019.6 1019.5 0.0
12/08:00am 18.7 10.8 -4.7 20 9.2 E 28 35 15 19 1019.4 1019.3 0.0
12/07:30am 17.8 9.1 -4.8 21 8.9 ESE 32 41 17 22 1019.2 1019.1 0.0
12/07:00am 17.5 9.6 -5.0 21 8.7 E 28 37 15 20 1019.0 1018.9 0.0
12/06:30am 17.8 9.5 -5.4 20 9.0 E 30 37 16 20 1018.8 1018.7 0.0
12/06:00am 18.1 10.2 -5.2 20 9.1 E 28 37 15 20 1018.4 1018.3 0.0
12/05:30am 18.1 10.2 -4.5 21 8.9 E 28 35 15 19 1018.4 1018.3 0.0
12/05:00am 18.0 11.3 -4.0 22 8.8 E 22 28 12 15 1018.3 1018.2 0.0
12/04:30am 18.2 11.2 -3.2 23 8.7 E 24 30 13 16 1018.2 1018.1 0.0
12/04:00am 18.3 11.8 -2.6 24 8.6 E 22 30 12 16 1018.0 1017.9 0.0
12/03:30am 17.9 12.4 -2.4 25 8.4 E 17 22 9 12 1018.0 1017.9 0.0
12/03:00am 17.2 12.0 -2.4 26 8.0 E 15 17 8 9 1018.0 1017.9 0.0
12/02:30am 17.6 12.5 -2.1 26 8.2 ESE 15 19 8 10 1017.8 1017.7 0.0
12/02:00am 14.7 11.0 -2.7 30 6.9 SE 7 7 4 4 1017.9 1017.8 0.0
12/01:30am 15.3 10.8 -3.1 28 7.3 SE 11 13 6 7 1017.6 1017.5 0.0
12/01:00am 15.9 11.4 -3.0 27 7.5 SE 11 13 6 7 1017.8 1017.7 0.0
12/12:30am 17.4 12.6 -2.3 26 8.1 SSE 13 15 7 8 1017.8 1017.7 0.0
12/12:00am 16.9 12.1 -2.7 26 7.9 S 13 17 7 9 1017.9 1017.8 0.0
 
Date/Time
WST
Temp
°C
App
Temp
°C
Dew
Point
°C
Rel
Hum
%
Delta-T
°C
Wind Press
QNH
hPa
Press
MSL
hPa
Rain since
9am
mm
Dir  Spd
km/h
Gust
km/h
Spd
kts
Gust
kts
11/11:30pm 17.1 13.4 -2.5 26 8.0 SSW 7 9 4 5 1017.9 1017.8 0.0
11/11:00pm 18.6 15.5 -2.3 24 8.7 SW 4 7 2 4 1018.0 1017.9 0.0
11/10:30pm 19.1 15.1 -2.5 23 9.0 SSE 9 11 5 6 1018.1 1018.0 0.0
11/10:00pm 17.9 13.2 -1.9 26 8.2 S 13 17 7 9 1018.1 1018.0 0.0
11/09:30pm 18.3 15.6 0.4 30 7.9 NE 4 6 2 3 1018.0 1017.9 0.0
11/09:00pm 19.2 17.6 6.3 43 6.4 NE 4 6 2 3 1017.9 1017.8 0.0
11/08:30pm 20.2 18.1 8.2 46 6.2 NE 9 11 5 6 1017.9 1017.8 0.0
11/08:00pm 20.9 18.5 8.5 45 6.5 NE 11 13 6 7 1017.8 1017.7 0.0
11/07:30pm 21.6 19.5 8.1 42 7.1 NNE 9 11 5 6 1017.7 1017.6 0.0
11/07:00pm 22.9 21.0 7.4 37 8.0 NNE 7 9 4 5 1017.6 1017.5 0.0
11/06:30pm 24.2 22.1 6.5 32 9.1 N 7 9 4 5 1017.3 1017.2 0.0
11/06:00pm 26.0 23.5 5.0 26 10.6 N 7 9 4 5 1017.0 1016.9 0.0
11/05:30pm 29.3 23.3 -6.8 9 15.2 E 17 22 9 12 1016.7 1016.7 0.0
11/05:00pm 30.1 23.6 -6.2 9 15.5 E 20 28 11 15 1016.5 1016.5 0.0
11/04:30pm 30.8 23.8 -7.2 8 16.1 ENE 22 32 12 17 1016.3 1016.3 0.0
11/04:00pm 30.8 24.4 -7.2 8 16.1 ENE 19 28 10 15 1016.2 1016.2 0.0
11/03:30pm 30.9 23.9 -7.1 8 16.2 ENE 22 32 12 17 1016.2 1016.2 0.0
11/03:00pm 30.9 23.9 -7.1 8 16.1 ENE 22 32 12 17 1016.4 1016.4 0.0
11/02:30pm 31.0 22.9 -7.1 8 16.2 ENE 28 37 15 20 1016.7 1016.7 0.0
11/02:00pm 31.3 24.0 -6.8 8 16.3 E 24 35 13 19 1016.8 1016.8 0.0
11/01:30pm 31.4 23.3 -6.8 8 16.4 E 28 35 15 19 1017.2 1017.1 0.0
11/01:00pm 30.6 22.4 -7.4 8 16.0 E 28 39 15 21 1017.7 1017.6 0.0
11/12:30pm 30.3 21.4 -7.6 8 15.9 E 32 41 17 22 1018.1 1018.0 0.0
11/12:00pm 30.3 21.5 -6.1 9 15.6 E 32 43 17 23 1018.6 1018.5 0.0
11/11:30am 29.5 20.2 -5.3 10 15.1 E 35 46 19 25 1018.9 1018.8 0.0
11/11:00am 29.0 20.2 -4.4 11 14.6 E 33 44 18 24 1019.2 1019.1 0.0
11/10:30am 28.0 19.5 -3.0 13 13.8 E 32 41 17 22 1019.6 1019.5 0.0
11/10:00am 26.5 18.3 -1.3 16 12.6 E 32 43 17 23 1019.8 1019.7 0.0
11/09:30am 24.8 16.1 -0.4 19 11.5 E 35 43 19 23 1019.9 1019.8 0.0
11/09:00am 23.4 15.9 1.1 23 10.3 E 30 37 16 20 1020.0 1019.9 0.0

Other formats

Comma delimited format used in spreadsheet applications
http://www.bom.gov.au/fwo/IDW60801/IDW60801.94306.axf

JavaScript Object Notation format (JSON) in row-major order
http://www.bom.gov.au/fwo/IDW60801/IDW60801.94306.json

Data quality

Most of these data are generated automatically and are frequently updated. Quality checks on data are not normally performed. It is possible for incorrect values to appear. Refer to information at About Latest Weather Observations and please check the disclaimer before using these data.